createdAt,value
2024-02-18T00:00:21.958Z,32.73
2024-02-18T00:02:50.136Z,33.03
2024-02-18T00:05:18.325Z,33.07
2024-02-18T00:07:46.457Z,32.87
2024-02-18T00:10:15.828Z,32.80
2024-02-18T00:12:43.988Z,33.20
2024-02-18T00:15:12.378Z,32.67
2024-02-18T00:17:41.280Z,32.83
2024-02-18T00:20:12.357Z,32.93
2024-02-18T00:22:40.501Z,32.97
2024-02-18T00:25:09.092Z,33.00
2024-02-18T00:27:39.604Z,32.87
2024-02-18T00:30:08.742Z,32.60
2024-02-18T00:32:37.032Z,32.70
2024-02-18T00:35:05.637Z,32.47
2024-02-18T00:37:34.040Z,32.63
2024-02-18T00:40:02.179Z,32.90
2024-02-18T00:42:30.232Z,32.57
2024-02-18T00:44:59.739Z,33.03
2024-02-18T00:47:27.892Z,32.83
2024-02-18T00:49:56.145Z,32.83
2024-02-18T00:52:24.406Z,32.93
2024-02-18T00:54:52.502Z,32.83
2024-02-18T00:57:20.743Z,33.00
2024-02-18T00:59:49.543Z,32.70
2024-02-18T01:02:19.577Z,32.90
2024-02-18T01:04:48.484Z,32.83
2024-02-18T01:07:16.961Z,32.73
2024-02-18T01:09:47.178Z,32.47
2024-02-18T01:12:15.768Z,32.77
2024-02-18T01:14:45.359Z,32.67
2024-02-18T01:17:13.737Z,32.57
2024-02-18T01:19:44.661Z,32.83
2024-02-18T01:22:13.073Z,32.60
2024-02-18T01:24:41.667Z,32.63
2024-02-18T01:27:10.020Z,32.73
2024-02-18T01:29:39.895Z,32.47
2024-02-18T01:32:09.756Z,32.60
2024-02-18T01:34:38.447Z,32.73
2024-02-18T01:37:08.091Z,32.80
2024-02-18T01:39:36.747Z,32.23
2024-02-18T01:42:05.255Z,32.73
2024-02-18T01:44:34.858Z,32.53
2024-02-18T01:47:02.817Z,32.67
2024-02-18T01:49:33.811Z,32.73
2024-02-18T01:52:02.597Z,32.57
2024-02-18T01:54:34.802Z,32.57
2024-02-18T01:57:07.746Z,32.57
2024-02-18T01:59:36.877Z,32.73
2024-02-18T02:02:05.714Z,32.33
2024-02-18T02:04:34.978Z,32.43
2024-02-18T02:07:04.199Z,32.60
2024-02-18T02:09:33.874Z,32.53
2024-02-18T02:12:02.277Z,32.43
2024-02-18T02:14:30.502Z,32.37
2024-02-18T02:16:59.060Z,32.53
2024-02-18T02:19:27.966Z,32.10
2024-02-18T02:21:56.437Z,32.47
2024-02-18T02:24:24.916Z,32.13
2024-02-18T02:26:58.248Z,32.00
2024-02-18T02:29:27.929Z,32.03
2024-02-18T02:31:58.683Z,31.87
2024-02-18T02:34:27.494Z,31.97
2024-02-18T02:36:55.933Z,32.03
2024-02-18T02:39:24.263Z,32.03
2024-02-18T02:41:52.334Z,31.87
2024-02-18T02:44:20.558Z,32.17
2024-02-18T02:46:50.417Z,31.87
2024-02-18T02:49:18.757Z,31.87
2024-02-18T02:51:47.230Z,31.83
2024-02-18T02:54:15.782Z,31.67
2024-02-18T02:56:44.330Z,32.20
2024-02-18T02:59:12.593Z,32.13
2024-02-18T03:01:40.739Z,32.10
2024-02-18T03:04:13.486Z,32.03
2024-02-18T03:06:41.892Z,32.10
2024-02-18T03:09:10.046Z,31.93
2024-02-18T03:11:38.540Z,31.87
2024-02-18T03:14:06.594Z,31.90
2024-02-18T03:16:34.832Z,32.13
2024-02-18T03:19:03.210Z,32.10
2024-02-18T03:21:32.991Z,31.73
2024-02-18T03:24:02.471Z,31.80
2024-02-18T03:26:32.499Z,31.83
2024-02-18T03:29:00.765Z,31.87
2024-02-18T03:31:28.843Z,32.73
2024-02-18T03:33:57.715Z,32.57
2024-02-18T03:36:26.426Z,32.53
2024-02-18T03:38:55.960Z,32.63
2024-02-18T03:41:24.615Z,32.53
2024-02-18T03:43:52.742Z,31.90
2024-02-18T03:46:20.810Z,31.40
2024-02-18T03:48:48.995Z,31.77
2024-02-18T03:51:17.670Z,31.60
2024-02-18T03:53:45.670Z,31.47
2024-02-18T03:56:15.179Z,31.20
2024-02-18T03:58:43.301Z,31.13
2024-02-18T04:01:12.307Z,31.53
2024-02-18T04:03:41.072Z,31.23
2024-02-18T04:06:10.046Z,31.23
2024-02-18T04:08:38.356Z,30.50
2024-02-18T04:11:06.641Z,31.17
2024-02-18T04:13:36.176Z,31.13
2024-02-18T04:16:05.349Z,31.13
2024-02-18T04:18:33.834Z,30.87
2024-02-18T04:21:02.156Z,30.90
2024-02-18T04:23:30.112Z,31.27
2024-02-18T04:25:58.174Z,31.27
2024-02-18T04:28:26.431Z,31.23
2024-02-18T04:30:56.225Z,31.47
2024-02-18T04:33:24.473Z,31.07
2024-02-18T04:35:52.509Z,31.37
2024-02-18T04:38:21.325Z,31.43
2024-02-18T04:40:49.286Z,32.43
2024-02-18T04:43:17.365Z,31.70
2024-02-18T04:45:47.209Z,31.87
2024-02-18T04:48:17.620Z,32.43
2024-02-18T04:50:45.884Z,32.33
2024-02-18T04:53:14.281Z,32.33
2024-02-18T04:55:42.568Z,32.60
2024-02-18T04:58:13.752Z,32.17
2024-02-18T05:00:42.159Z,32.17
2024-02-18T05:03:10.555Z,32.13
2024-02-18T05:05:40.359Z,32.37
2024-02-18T05:08:08.459Z,32.20
2024-02-18T05:10:38.380Z,32.03
2024-02-18T05:13:06.688Z,32.20
2024-02-18T05:15:35.017Z,32.13
2024-02-18T05:18:03.055Z,32.17
2024-02-18T05:20:31.014Z,32.00
2024-02-18T05:23:00.696Z,32.13
2024-02-18T05:25:28.674Z,32.43
2024-02-18T05:27:56.666Z,32.17
2024-02-18T05:30:24.942Z,32.37
2024-02-18T05:32:53.901Z,32.37
2024-02-18T05:35:21.963Z,32.27
2024-02-18T05:37:50.077Z,32.17
2024-02-18T05:40:19.561Z,32.53
2024-02-18T05:42:47.886Z,32.30
2024-02-18T05:45:21.590Z,32.17
2024-02-18T05:47:50.145Z,32.13
2024-02-18T05:50:18.159Z,32.20
2024-02-18T05:52:46.499Z,32.07
2024-02-18T05:55:14.815Z,32.17
2024-02-18T05:57:44.607Z,31.90
2024-02-18T06:00:14.506Z,32.47
2024-02-18T06:02:43.000Z,31.87
2024-02-18T06:05:13.192Z,32.10
2024-02-18T06:07:41.761Z,32.00
2024-02-18T06:10:10.862Z,32.00
2024-02-18T06:12:39.716Z,32.10
2024-02-18T06:15:10.543Z,32.00
2024-02-18T06:17:39.242Z,32.00
2024-02-18T06:20:08.792Z,32.10
2024-02-18T06:22:36.951Z,32.33
2024-02-18T06:25:05.807Z,32.10
2024-02-18T06:27:34.167Z,32.23
2024-02-18T06:30:02.420Z,32.13
2024-02-18T06:32:32.358Z,31.80
2024-02-18T06:35:00.674Z,32.03
2024-02-18T06:37:28.958Z,32.07
2024-02-18T06:39:57.008Z,32.13
2024-02-18T06:42:25.304Z,32.17
2024-02-18T06:44:53.674Z,32.03
2024-02-18T06:47:21.730Z,32.13
2024-02-18T06:49:51.601Z,31.97
2024-02-18T06:52:20.365Z,32.00
2024-02-18T06:54:48.632Z,31.93
2024-02-18T06:57:16.770Z,32.00
2024-02-18T06:59:46.622Z,31.73
2024-02-18T07:02:15.063Z,31.53
2024-02-18T07:04:43.342Z,32.00
2024-02-18T07:07:13.233Z,31.93
2024-02-18T07:09:43.869Z,31.83
2024-02-18T07:12:12.073Z,31.37
2024-02-18T07:14:40.204Z,31.97
2024-02-18T07:17:08.316Z,31.60
2024-02-18T07:19:36.738Z,32.00
2024-02-18T07:22:05.689Z,32.10
2024-02-18T07:24:35.527Z,31.70
2024-02-18T07:27:04.278Z,32.27
2024-02-18T07:29:32.349Z,32.03
2024-02-18T07:32:00.545Z,32.07
2024-02-18T07:34:28.876Z,32.27
2024-02-18T07:36:57.224Z,32.33
2024-02-18T07:39:25.910Z,32.37
2024-02-18T07:41:56.272Z,32.27
2024-02-18T07:44:24.236Z,32.33
2024-02-18T07:46:55.300Z,31.90
2024-02-18T07:49:24.415Z,31.73
2024-02-18T07:51:52.851Z,31.43
2024-02-18T07:54:21.042Z,32.23
2024-02-18T07:56:50.292Z,32.13
2024-02-18T07:59:22.826Z,32.23
2024-02-18T08:01:52.195Z,31.93
2024-02-18T08:04:20.303Z,32.30
2024-02-18T08:06:49.749Z,32.23
2024-02-18T08:09:18.077Z,32.10
2024-02-18T08:11:46.884Z,32.00
2024-02-18T08:14:15.243Z,32.20
2024-02-18T08:16:44.930Z,31.80
2024-02-18T08:19:13.071Z,32.17
2024-02-18T08:21:41.367Z,32.30
2024-02-18T08:24:11.491Z,32.07
2024-02-18T08:26:39.489Z,32.13
2024-02-18T08:29:08.600Z,32.37
2024-02-18T08:31:36.974Z,32.43
2024-02-18T08:34:06.687Z,32.33
2024-02-18T08:36:34.736Z,32.13
2024-02-18T08:39:03.129Z,32.30
2024-02-18T08:41:31.724Z,31.70
2024-02-18T08:44:02.153Z,32.07
2024-02-18T08:46:31.503Z,31.70
2024-02-18T08:49:00.951Z,31.97
2024-02-18T08:51:30.392Z,32.67
2024-02-18T08:53:58.505Z,32.63
2024-02-18T08:56:26.446Z,32.67
2024-02-18T08:58:54.989Z,32.23
2024-02-18T09:01:23.093Z,32.83
2024-02-18T09:03:51.506Z,32.80
2024-02-18T09:06:19.879Z,32.83
2024-02-18T09:08:49.481Z,32.63
2024-02-18T09:11:17.682Z,32.53
2024-02-18T09:13:45.786Z,32.47
2024-02-18T09:16:14.064Z,32.17
2024-02-18T09:18:42.348Z,32.70
2024-02-18T09:21:10.511Z,32.67
2024-02-18T09:23:38.447Z,31.93
2024-02-18T09:26:10.523Z,32.10
2024-02-18T09:28:39.002Z,32.17
2024-02-18T09:31:09.679Z,32.13
2024-02-18T09:33:37.923Z,32.03
2024-02-18T09:36:06.664Z,32.03
2024-02-18T09:38:34.618Z,32.20
2024-02-18T09:41:04.763Z,32.13
2024-02-18T09:43:40.030Z,32.23
2024-02-18T09:46:10.040Z,32.57
2024-02-18T09:48:39.426Z,32.40
2024-02-18T09:51:08.569Z,32.73
2024-02-18T09:53:36.907Z,32.10
2024-02-18T09:56:06.482Z,32.23
2024-02-18T09:58:36.154Z,32.53
2024-02-18T10:01:04.684Z,32.43
2024-02-18T10:03:33.064Z,32.37
2024-02-18T10:06:01.283Z,31.97
2024-02-18T10:08:29.444Z,32.37
2024-02-18T10:10:57.799Z,32.13
2024-02-18T10:13:26.376Z,32.03
2024-02-18T10:15:56.000Z,32.07
2024-02-18T10:18:24.559Z,32.10
2024-02-18T10:20:55.442Z,32.17
2024-02-18T10:23:23.718Z,32.37
2024-02-18T10:25:52.025Z,32.13
2024-02-18T10:28:21.321Z,32.33
2024-02-18T10:30:50.673Z,31.90
2024-02-18T10:33:22.929Z,31.97
2024-02-18T10:35:54.583Z,31.97
2024-02-18T10:38:25.879Z,32.23
2024-02-18T10:41:03.221Z,32.03
2024-02-18T10:43:32.708Z,32.20
2024-02-18T10:46:04.643Z,32.23
2024-02-18T10:48:38.651Z,32.33
2024-02-18T10:51:08.430Z,32.43
2024-02-18T10:53:42.053Z,32.47
2024-02-18T10:56:14.558Z,32.33
2024-02-18T10:58:58.991Z,32.70
2024-02-18T11:01:30.009Z,32.23
2024-02-18T11:04:07.944Z,32.30
2024-02-18T11:06:38.349Z,32.30
2024-02-18T11:09:09.513Z,32.00
2024-02-18T11:11:39.276Z,31.87
2024-02-18T11:14:10.135Z,32.33
2024-02-18T11:16:40.144Z,32.17
2024-02-18T11:19:11.422Z,32.00
2024-02-18T11:21:40.306Z,31.97
2024-02-18T11:24:09.114Z,32.43
2024-02-18T11:26:37.637Z,32.17
2024-02-18T11:29:06.084Z,32.30
2024-02-18T11:31:34.878Z,31.77
2024-02-18T11:34:07.023Z,31.67
2024-02-18T11:36:36.654Z,32.00
2024-02-18T11:39:08.044Z,32.33
2024-02-18T11:41:38.393Z,32.20
2024-02-18T11:44:10.508Z,32.00
2024-02-18T11:46:41.198Z,32.07
2024-02-18T11:49:10.217Z,32.07
2024-02-18T11:51:39.842Z,31.60
2024-02-18T11:54:08.229Z,31.67
2024-02-18T11:56:36.254Z,31.47
2024-02-18T11:59:04.913Z,31.43
2024-02-18T12:01:37.750Z,31.77
2024-02-18T12:04:06.820Z,31.07
2024-02-18T12:06:36.886Z,31.20
2024-02-18T12:09:15.999Z,30.93
2024-02-18T12:11:47.804Z,30.80
2024-02-18T12:14:18.037Z,30.60
2024-02-18T12:16:47.119Z,30.60
2024-02-18T12:19:15.545Z,30.90
2024-02-18T12:21:43.990Z,31.40
2024-02-18T12:24:13.491Z,31.57
2024-02-18T12:26:41.419Z,31.40
2024-02-18T12:29:09.453Z,31.70
2024-02-18T12:31:39.384Z,31.63
2024-02-18T12:34:07.657Z,31.70
2024-02-18T12:36:36.506Z,31.60
2024-02-18T12:39:08.750Z,31.17
2024-02-18T12:41:38.494Z,31.47
2024-02-18T12:46:39.161Z,31.67
2024-02-18T12:49:07.938Z,31.47
2024-02-18T12:51:37.809Z,31.07
2024-02-18T12:54:05.810Z,31.03
2024-02-18T12:56:34.679Z,30.60
2024-02-18T12:59:06.866Z,30.80
2024-02-18T13:01:35.440Z,30.53
2024-02-18T13:04:10.501Z,30.30
2024-02-18T13:06:40.858Z,30.40
2024-02-18T13:09:09.564Z,29.93
2024-02-18T13:11:38.154Z,30.33
2024-02-18T13:14:07.441Z,30.23
2024-02-18T13:16:35.985Z,30.07
2024-02-18T13:19:04.828Z,29.97
2024-02-18T13:21:33.318Z,30.13
2024-02-18T13:24:01.357Z,30.10
2024-02-18T13:26:30.354Z,30.03
2024-02-18T13:28:58.475Z,29.87
2024-02-18T13:31:29.685Z,29.63
2024-02-18T13:33:57.813Z,30.00
2024-02-18T13:36:25.895Z,29.97
2024-02-18T13:38:57.385Z,29.77
2024-02-18T13:41:32.814Z,29.97
2024-02-18T13:44:01.048Z,30.17
2024-02-18T13:46:31.367Z,30.13
2024-02-18T13:48:59.787Z,30.33
2024-02-18T13:51:28.127Z,30.40
2024-02-18T13:53:56.066Z,30.00
2024-02-18T13:56:24.267Z,30.27
2024-02-18T13:58:55.234Z,30.30
2024-02-18T14:01:23.214Z,30.20
2024-02-18T14:03:52.670Z,29.90
2024-02-18T14:06:20.883Z,30.20
2024-02-18T14:08:50.307Z,29.80
2024-02-18T14:11:19.215Z,30.20
2024-02-18T14:13:47.409Z,30.00
2024-02-18T14:16:20.073Z,29.90
2024-02-18T14:18:48.640Z,30.10
2024-02-18T14:21:18.071Z,29.77
2024-02-18T14:23:46.737Z,29.93
2024-02-18T14:26:16.075Z,29.83
2024-02-18T14:28:46.739Z,29.50
2024-02-18T14:31:14.705Z,30.10
2024-02-18T14:33:42.946Z,29.47
2024-02-18T14:36:13.269Z,29.77
2024-02-18T14:38:55.265Z,29.70
2024-02-18T14:41:25.879Z,29.70
2024-02-18T14:43:54.242Z,29.67
2024-02-18T14:46:22.376Z,29.70
2024-02-18T14:48:54.554Z,29.63
2024-02-18T14:51:22.659Z,29.70
2024-02-18T14:53:54.572Z,29.37
2024-02-18T14:56:22.613Z,29.30
2024-02-18T14:58:50.766Z,29.70
2024-02-18T15:01:20.034Z,29.77
2024-02-18T15:03:48.610Z,29.53
2024-02-18T15:06:17.443Z,29.80
2024-02-18T15:08:45.814Z,28.87
2024-02-18T15:11:19.454Z,29.40
2024-02-18T15:13:50.021Z,29.40
2024-02-18T15:16:21.168Z,28.83
2024-02-18T15:18:51.812Z,28.83
2024-02-18T15:21:21.039Z,29.23
2024-02-18T15:23:49.311Z,28.63
2024-02-18T15:26:19.984Z,29.00
2024-02-18T15:28:48.034Z,28.80
2024-02-18T15:31:16.098Z,28.90
2024-02-18T15:33:44.496Z,28.97
2024-02-18T15:36:14.007Z,29.03
2024-02-18T15:38:43.081Z,29.00
2024-02-18T15:41:22.951Z,29.20
2024-02-18T15:43:54.284Z,29.17
2024-02-18T15:46:30.484Z,29.07
2024-02-18T15:48:58.544Z,29.30
2024-02-18T15:51:29.739Z,29.23
2024-02-18T15:53:58.569Z,29.17
2024-02-18T15:56:28.204Z,29.10
2024-02-18T15:58:58.838Z,29.27
2024-02-18T16:01:27.622Z,28.60
2024-02-18T16:03:57.588Z,29.23
2024-02-18T16:06:35.550Z,29.13
2024-02-18T16:09:04.137Z,28.97
2024-02-18T16:11:34.779Z,29.40
2024-02-18T16:14:02.946Z,29.10
2024-02-18T16:16:32.027Z,28.70
2024-02-18T16:19:00.346Z,28.90
2024-02-18T16:21:28.742Z,29.07
2024-02-18T16:24:01.048Z,28.47
2024-02-18T16:26:30.270Z,28.67
2024-02-18T16:28:59.870Z,29.00
2024-02-18T16:31:29.457Z,28.47
2024-02-18T16:33:57.613Z,28.67
2024-02-18T16:36:27.465Z,28.50
2024-02-18T16:38:59.180Z,28.37
2024-02-18T16:41:27.832Z,28.17
2024-02-18T16:43:55.877Z,28.40
2024-02-18T16:46:28.343Z,28.17
2024-02-18T16:48:56.326Z,28.10
2024-02-18T16:51:27.110Z,28.27
2024-02-18T16:53:57.090Z,28.37
2024-02-18T16:56:26.661Z,28.67
2024-02-18T16:58:55.100Z,28.57
2024-02-18T17:01:24.692Z,28.57
2024-02-18T17:03:53.501Z,28.83
2024-02-18T17:06:22.107Z,28.73
2024-02-18T17:08:50.405Z,28.97
2024-02-18T17:11:21.046Z,28.73
2024-02-18T17:13:53.572Z,28.40
2024-02-18T17:16:21.622Z,28.53
2024-02-18T17:18:52.175Z,28.67
2024-02-18T17:21:21.170Z,28.57
2024-02-18T17:23:51.968Z,28.37
2024-02-18T17:26:19.882Z,28.97
2024-02-18T17:28:51.143Z,27.77
2024-02-18T17:31:22.564Z,28.27
2024-02-18T17:33:56.474Z,28.17
2024-02-18T17:36:26.875Z,28.17
2024-02-18T17:38:55.145Z,28.37
2024-02-18T17:41:23.223Z,28.27
2024-02-18T17:43:51.751Z,27.73
2024-02-18T17:46:21.537Z,28.37
2024-02-18T17:48:49.557Z,28.53
2024-02-18T17:51:19.284Z,27.87
2024-02-18T17:53:47.865Z,28.40
2024-02-18T17:56:16.061Z,28.27
2024-02-18T17:58:44.397Z,28.33
2024-02-18T18:01:12.962Z,27.83
2024-02-18T18:03:42.908Z,27.97
2024-02-18T18:06:12.671Z,28.63
2024-02-18T18:08:44.074Z,28.10
2024-02-18T18:11:13.109Z,28.40
2024-02-18T18:13:43.468Z,28.07
2024-02-18T18:16:15.405Z,27.80
2024-02-18T18:18:44.509Z,28.40
2024-02-18T18:21:12.877Z,28.33
2024-02-18T18:23:42.568Z,28.17
2024-02-18T18:26:11.940Z,28.13
2024-02-18T18:28:40.155Z,27.97
2024-02-18T18:31:08.152Z,27.67
2024-02-18T18:33:37.284Z,27.83
2024-02-18T18:36:08.896Z,28.30
2024-02-18T18:38:37.503Z,28.07
2024-02-18T18:41:08.319Z,28.37
2024-02-18T18:43:36.579Z,28.30
2024-02-18T18:46:04.810Z,28.43
2024-02-18T18:48:33.310Z,28.43
2024-02-18T18:51:01.707Z,28.60
2024-02-18T18:53:30.629Z,27.97
2024-02-18T18:56:00.318Z,27.73
2024-02-18T18:58:29.852Z,27.97
2024-02-18T19:00:59.089Z,28.17
2024-02-18T19:03:29.936Z,28.40
2024-02-18T19:05:58.037Z,27.97
2024-02-18T19:08:26.400Z,28.13
2024-02-18T19:10:56.810Z,28.67
2024-02-18T19:15:59.811Z,28.30
2024-02-18T19:18:27.902Z,28.57
2024-02-18T19:20:56.570Z,27.93
2024-02-18T19:23:27.623Z,27.97
2024-02-18T19:25:55.945Z,28.67
2024-02-18T19:28:26.173Z,28.27
2024-02-18T19:30:55.971Z,28.17
2024-02-18T19:33:27.783Z,28.60
2024-02-18T19:35:57.841Z,28.20
2024-02-18T19:38:27.485Z,28.17
2024-02-18T19:40:56.207Z,28.03
2024-02-18T19:43:24.902Z,28.17
2024-02-18T19:45:55.146Z,28.10
2024-02-18T19:48:25.575Z,27.93
2024-02-18T19:50:56.196Z,27.97
2024-02-18T19:53:25.459Z,28.07
2024-02-18T19:55:53.787Z,28.20
2024-02-18T19:58:21.808Z,28.27
2024-02-18T20:00:50.516Z,28.27
2024-02-18T20:03:18.573Z,28.30
2024-02-18T20:05:48.769Z,28.30
2024-02-18T20:08:18.646Z,28.60
2024-02-18T20:10:48.511Z,28.27
2024-02-18T20:13:17.954Z,27.97
2024-02-18T20:15:49.313Z,28.20
2024-02-18T20:18:19.484Z,28.30
2024-02-18T20:20:50.329Z,28.47
2024-02-18T20:23:18.858Z,28.40
2024-02-18T20:25:46.911Z,28.27
2024-02-18T20:28:15.190Z,28.57
2024-02-18T20:30:44.709Z,28.60
2024-02-18T20:33:16.708Z,28.00
2024-02-18T20:35:44.802Z,28.20
2024-02-18T20:38:15.098Z,28.10
2024-02-18T20:40:45.063Z,28.07
2024-02-18T20:43:14.358Z,28.47
2024-02-18T20:45:43.116Z,28.23
2024-02-18T20:48:13.463Z,28.07
2024-02-18T20:50:41.615Z,28.27
2024-02-18T20:53:11.410Z,27.97
2024-02-18T20:58:36.211Z,27.77
2024-02-18T21:01:06.175Z,28.07
2024-02-18T21:03:34.576Z,28.10
2024-02-18T21:06:02.639Z,28.10
2024-02-18T21:08:31.268Z,27.57
2024-02-18T21:11:00.863Z,28.07
2024-02-18T21:13:28.972Z,27.73
2024-02-18T21:15:57.297Z,27.73
2024-02-18T21:18:25.853Z,27.83
2024-02-18T21:20:56.760Z,27.63
2024-02-18T21:23:24.897Z,27.87
2024-02-18T21:25:53.799Z,27.97
2024-02-18T21:28:24.035Z,28.20
2024-02-18T21:30:52.117Z,28.07
2024-02-18T21:33:22.157Z,27.80
2024-02-18T21:35:50.588Z,28.20
2024-02-18T21:38:18.888Z,27.87
2024-02-18T21:40:47.349Z,28.10
2024-02-18T21:43:15.648Z,28.23
2024-02-18T21:45:46.448Z,28.10
2024-02-18T21:48:14.839Z,27.70
2024-02-18T21:50:45.950Z,28.27
2024-02-18T21:53:14.952Z,28.07
2024-02-18T21:55:43.359Z,28.03
2024-02-18T21:58:12.110Z,27.90
2024-02-18T22:00:40.451Z,27.70
2024-02-18T22:03:11.187Z,27.90
2024-02-18T22:05:39.474Z,27.90
2024-02-18T22:08:08.400Z,27.80
2024-02-18T22:10:37.243Z,28.20
2024-02-18T22:13:05.858Z,27.80
2024-02-18T22:15:34.121Z,28.00
2024-02-18T22:18:02.524Z,27.90
2024-02-18T22:20:32.789Z,27.70
2024-02-18T22:23:01.434Z,27.90
2024-02-18T22:25:29.877Z,27.90
2024-02-18T22:27:58.618Z,27.70
2024-02-18T22:30:27.368Z,27.67
2024-02-18T22:32:55.630Z,28.07
2024-02-18T22:35:24.028Z,28.10
2024-02-18T22:37:53.857Z,28.00
2024-02-18T22:40:22.660Z,27.40
2024-02-18T22:42:51.532Z,27.83
2024-02-18T22:45:20.291Z,28.10
2024-02-18T22:47:48.597Z,27.80
2024-02-18T22:50:16.847Z,27.50
2024-02-18T22:52:45.006Z,27.80
2024-02-18T22:55:14.574Z,27.57
2024-02-18T22:57:43.146Z,27.80
2024-02-18T23:00:18.085Z,27.60
2024-02-18T23:02:46.925Z,27.50
2024-02-18T23:05:18.684Z,27.97
2024-02-18T23:07:48.303Z,27.80
2024-02-18T23:10:20.134Z,28.00
2024-02-18T23:12:48.847Z,28.07
2024-02-18T23:15:18.516Z,28.10
2024-02-18T23:17:47.512Z,27.80
2024-02-18T23:20:15.636Z,28.20
2024-02-18T23:22:43.695Z,27.63
2024-02-18T23:25:13.458Z,28.00
2024-02-18T23:27:44.152Z,27.90
2024-02-18T23:30:12.875Z,27.80
2024-02-18T23:32:41.702Z,28.17
2024-02-18T23:35:11.014Z,28.00
2024-02-18T23:37:44.416Z,28.00
2024-02-18T23:40:15.354Z,27.63
2024-02-18T23:42:45.710Z,28.20
2024-02-18T23:45:16.074Z,28.10
2024-02-18T23:47:44.326Z,28.00
2024-02-18T23:50:12.597Z,27.97
2024-02-18T23:52:41.419Z,27.80
2024-02-18T23:55:11.745Z,28.07
2024-02-18T23:57:39.953Z,27.90
